Time;durP1;ratioP1;P1;durP2;ratioP2;P2;SDS_P1;SDS_P2;PMS_P1;PMS_P2;Temp;Humidity;BMP_temperature;BMP_pressure;BME280_temperature;BME280_humidity;BME280_pressure;Samples;Min_cycle;Max_cycle;Signal;HPM_P1;HPM_P2
2023/12/27 00:01:17;;;;;;;4.70;1.80;;;;;;;20.21;48.07;102023.09;5009039;28;113721;-79
2023/12/27 00:03:43;;;;;;;7.50;1.73;;;;;;;20.21;47.97;102025.75;5007803;28;98591;-79
2023/12/27 00:06:08;;;;;;;5.30;2.10;;;;;;;20.19;47.98;102028.41;5003748;28;108915;-79
2023/12/27 00:08:35;;;;;;;4.80;1.85;;;;;;;20.19;48.09;102025.75;5013809;28;106469;-79
2023/12/27 00:11:02;;;;;;;3.80;1.60;;;;;;;20.19;48.11;102019.59;5007851;28;97361;-79
2023/12/27 00:13:27;;;;;;;3.15;1.40;;;;;;;20.21;47.83;102025.75;5010465;28;100131;-80
2023/12/27 00:15:52;;;;;;;3.60;1.58;;;;;;;20.21;47.96;102016.00;5017448;28;96941;-79
2023/12/27 00:18:18;;;;;;;4.13;1.50;;;;;;;20.22;47.98;102006.31;5023618;28;110742;-80
2023/12/27 00:20:44;;;;;;;4.78;1.75;;;;;;;20.23;47.95;102008.06;5003076;28;97014;-79
2023/12/27 00:23:10;;;;;;;3.92;1.65;;;;;;;20.22;47.90;102001.88;5018674;28;96947;-79
2023/12/27 00:25:35;;;;;;;3.92;1.73;;;;;;;20.22;47.68;102004.53;5010997;28;99598;-80
2023/12/27 00:28:00;;;;;;;3.95;1.38;;;;;;;20.22;47.86;102001.88;5015016;28;110160;-79
2023/12/27 00:30:26;;;;;;;4.03;1.50;;;;;;;20.22;47.74;101999.25;5011834;28;99276;-79
2023/12/27 00:32:51;;;;;;;3.85;1.60;;;;;;;20.20;47.81;102008.97;5006529;28;97749;-79
2023/12/27 00:35:16;;;;;;;4.97;1.85;;;;;;;20.23;47.67;102006.31;5005757;28;100196;-80
2023/12/27 00:37:42;;;;;;;3.85;1.70;;;;;;;20.23;48.06;102005.41;5003765;28;97097;-79
2023/12/27 00:40:08;;;;;;;4.68;1.73;;;;;;;20.24;47.86;102001.88;5002854;28;100192;-79
2023/12/27 00:42:33;;;;;;;3.42;1.85;;;;;;;20.21;47.98;102001.91;4991401;28;99163;-79
2023/12/27 00:45:00;;;;;;;4.45;1.85;;;;;;;20.21;47.82;102000.13;5007191;28;100212;-80
2023/12/27 00:47:25;;;;;;;3.70;1.50;;;;;;;20.21;47.89;101997.47;5002830;28;97225;-79
2023/12/27 00:49:50;;;;;;;4.13;1.80;;;;;;;20.21;47.57;102002.75;5004206;28;98675;-79
2023/12/27 00:52:16;;;;;;;3.97;1.48;;;;;;;20.20;47.78;102011.63;5007481;28;97532;-79
2023/12/27 00:54:42;;;;;;;4.13;1.58;;;;;;;20.21;47.92;102008.06;5011176;28;124321;-79
2023/12/27 00:57:07;;;;;;;3.22;1.45;;;;;;;20.21;47.80;102010.72;4992395;28;97403;-79
2023/12/27 00:59:32;;;;;;;4.10;1.55;;;;;;;20.22;47.95;102001.88;5008232;28;96814;-79
2023/12/27 01:01:59;;;;;;;4.00;1.83;;;;;;;20.22;47.54;102004.53;4991550;28;100223;-79
2023/12/27 01:04:24;;;;;;;3.95;1.58;;;;;;;20.22;47.62;101999.25;5010093;28;126588;-79
2023/12/27 01:06:50;;;;;;;2.75;1.42;;;;;;;20.22;47.69;101996.59;5012271;28;96951;-80
2023/12/27 01:09:17;;;;;;;3.92;1.60;;;;;;;20.21;47.85;101997.47;5012087;28;96860;-79
2023/12/27 01:11:42;;;;;;;4.50;1.70;;;;;;;20.22;47.60;101999.25;5005167;28;100709;-79
2023/12/27 01:14:07;;;;;;;4.57;1.58;;;;;;;20.21;47.78;102002.75;5010211;28;97054;-79
2023/12/27 01:16:33;;;;;;;3.35;1.67;;;;;;;20.21;47.84;101993.94;5009269;28;96780;-79
2023/12/27 01:18:59;;;;;;;4.50;1.63;;;;;;;20.21;47.47;101993.94;5001418;28;96905;-79
2023/12/27 01:21:24;;;;;;;3.38;1.63;;;;;;;20.20;47.91;101993.09;5006867;27;97651;-79
2023/12/27 01:23:51;;;;;;;4.15;1.52;;;;;;;20.23;47.60;101995.72;5017305;28;123074;-79
2023/12/27 01:26:16;;;;;;;3.53;1.40;;;;;;;20.21;47.57;101996.59;5019080;27;96951;-79
2023/12/27 01:28:41;;;;;;;2.58;1.20;;;;;;;20.19;47.58;101988.66;4994665;28;96934;-80
2023/12/27 01:31:09;;;;;;;2.45;1.38;;;;;;;20.20;47.71;101995.72;4996414;28;100076;-79
2023/12/27 01:33:35;;;;;;;3.88;1.38;;;;;;;20.20;47.92;101997.50;5007930;28;99259;-79
2023/12/27 01:36:05;;;;;;;4.35;1.60;;;;;;;20.17;47.44;102001.06;5009227;28;96961;-79
2023/12/27 01:38:31;;;;;;;2.67;1.45;;;;;;;20.16;47.83;102015.19;5005825;28;97488;-79
2023/12/27 01:40:56;;;;;;;2.67;1.45;;;;;;;20.16;47.75;102004.59;5018308;28;101024;-79
2023/12/27 01:43:21;;;;;;;2.88;1.13;;;;;;;20.17;47.73;101996.63;5011070;28;125440;-79
2023/12/27 01:45:50;;;;;;;4.00;1.35;;;;;;;20.19;47.59;101993.97;5006720;28;111977;-80
2023/12/27 01:48:20;;;;;;;3.83;1.38;;;;;;;20.20;47.80;101993.09;5015137;28;96997;-79
2023/12/27 01:50:46;;;;;;;3.35;1.30;;;;;;;20.20;47.41;101992.22;4998235;28;100242;-79
2023/12/27 01:53:12;;;;;;;4.35;1.52;;;;;;;20.18;47.55;101981.63;5034203;28;99350;-79
2023/12/27 01:55:37;;;;;;;3.40;1.50;;;;;;;20.16;47.52;101983.41;5031332;27;97120;-79
2023/12/27 01:58:07;;;;;;;4.30;1.52;;;;;;;20.17;47.57;101982.50;5011377;28;96884;-79
2023/12/27 02:00:35;;;;;;;3.53;1.42;;;;;;;20.19;47.41;101985.16;5010566;28;100942;-79
2023/12/27 02:03:01;;;;;;;3.50;1.30;;;;;;;20.19;47.24;101987.78;5014142;28;99896;-79
2023/12/27 02:05:26;;;;;;;3.47;1.52;;;;;;;20.19;47.40;101986.00;5020421;28;96944;-79
2023/12/27 02:07:52;;;;;;;3.05;1.30;;;;;;;20.17;47.55;101993.97;5013250;28;112748;-79
2023/12/27 02:10:19;;;;;;;3.20;1.55;;;;;;;20.16;47.56;101986.94;5010430;28;97715;-80
2023/12/27 02:12:44;;;;;;;3.47;1.42;;;;;;;20.17;47.59;101993.09;4996000;28;110239;-79
2023/12/27 02:15:09;;;;;;;3.03;1.48;;;;;;;20.14;47.34;101985.19;5019288;28;96946;-79
2023/12/27 02:17:35;;;;;;;5.03;1.30;;;;;;;20.12;47.69;101982.56;5008099;28;112470;-79
2023/12/27 02:20:02;;;;;;;2.95;1.35;;;;;;;20.14;47.38;101979.88;5005822;28;101046;-79
2023/12/27 02:22:28;;;;;;;3.10;1.25;;;;;;;20.12;47.74;101976.38;4997105;28;100608;-80
2023/12/27 02:24:54;;;;;;;2.58;1.30;;;;;;;20.13;47.75;101972.84;5011957;28;97447;-79
2023/12/27 02:27:20;;;;;;;3.85;1.40;;;;;;;20.12;47.68;101971.97;5014849;28;97854;-79
2023/12/27 02:29:45;;;;;;;2.88;1.20;;;;;;;20.14;47.45;101974.56;5021816;28;97437;-79
2023/12/27 02:32:11;;;;;;;2.88;1.20;;;;;;;20.14;47.39;101970.19;5023384;28;128846;-79
2023/12/27 02:34:36;;;;;;;4.43;1.38;;;;;;;20.15;47.50;101971.06;5013880;28;97318;-79
2023/12/27 02:37:02;;;;;;;3.17;1.25;;;;;;;20.16;47.53;101975.47;5001432;28;106808;-79
2023/12/27 02:39:28;;;;;;;2.97;1.30;;;;;;;20.14;47.62;101971.94;5014300;28;97428;-79
2023/12/27 02:41:53;;;;;;;4.80;1.30;;;;;;;20.15;47.22;101973.69;5008128;28;126966;-79
2023/12/27 02:44:19;;;;;;;2.95;1.40;;;;;;;20.14;47.18;101970.19;5015239;28;96746;-79
2023/12/27 02:46:44;;;;;;;3.35;1.58;;;;;;;20.13;47.37;101957.81;5016018;28;96888;-79
2023/12/27 02:49:09;;;;;;;2.95;1.30;;;;;;;20.14;47.23;101961.34;5008506;28;116205;-79
2023/12/27 02:51:35;;;;;;;2.67;1.10;;;;;;;20.13;47.18;101962.25;5009993;28;98509;-79
2023/12/27 02:54:00;;;;;;;2.95;1.40;;;;;;;20.11;47.27;101956.97;5022309;28;96885;-79
2023/12/27 02:56:26;;;;;;;3.33;1.02;;;;;;;20.13;47.39;101956.94;5007767;28;97341;-79
2023/12/27 02:58:51;;;;;;;2.95;1.20;;;;;;;20.14;47.10;101942.78;4992710;28;99338;-80
2023/12/27 03:01:16;;;;;;;3.05;1.20;;;;;;;20.14;47.54;101938.41;5007505;28;97113;-80
2023/12/27 03:03:43;;;;;;;2.97;1.40;;;;;;;20.14;47.03;101926.91;5012782;28;97315;-79
2023/12/27 03:06:09;;;;;;;2.38;0.95;;;;;;;20.13;47.29;101930.47;4993979;28;96898;-79
2023/12/27 03:08:37;;;;;;;2.22;1.17;;;;;;;20.15;47.26;101918.06;5011341;28;99607;-79
2023/12/27 03:11:03;;;;;;;3.20;1.50;;;;;;;20.13;47.32;101931.34;5011779;28;100105;-79
2023/12/27 03:13:28;;;;;;;3.53;1.10;;;;;;;20.14;47.27;101926.91;5008368;28;96819;-79
2023/12/27 03:15:53;;;;;;;2.25;1.05;;;;;;;20.15;47.08;101931.31;5021533;28;112028;-79
2023/12/27 03:18:19;;;;;;;3.28;1.30;;;;;;;20.17;47.21;101926.88;4982203;28;125932;-79
2023/12/27 03:20:44;;;;;;;3.17;1.50;;;;;;;20.16;47.30;101920.72;4995265;28;99181;-80
2023/12/27 03:23:10;;;;;;;2.42;1.15;;;;;;;20.14;47.13;101914.56;5007653;28;97549;-79
2023/12/27 03:25:35;;;;;;;2.83;1.27;;;;;;;20.13;47.26;101909.28;5012109;28;96881;-80
2023/12/27 03:28:01;;;;;;;3.13;1.27;;;;;;;20.15;47.02;101912.78;5001155;28;101444;-80
2023/12/27 03:30:26;;;;;;;2.75;1.17;;;;;;;20.12;47.18;101897.81;5020742;28;109819;-80
2023/12/27 03:32:51;;;;;;;3.53;1.30;;;;;;;20.11;47.07;101897.81;5010764;28;96814;-79
2023/12/27 03:35:17;;;;;;;3.30;1.23;;;;;;;20.10;47.37;101893.41;5010619;28;103023;-80
2023/12/27 03:37:44;;;;;;;2.40;1.20;;;;;;;20.11;47.18;101897.81;4999132;28;130322;-79
2023/12/27 03:40:10;;;;;;;1.83;0.95;;;;;;;20.11;47.02;101904.00;4992893;28;100116;-80
2023/12/27 03:42:36;;;;;;;2.20;1.10;;;;;;;20.11;46.99;101903.13;5011822;28;97571;-79
2023/12/27 03:45:01;;;;;;;2.47;1.42;;;;;;;20.10;47.16;101894.28;5010620;28;112678;-79
2023/12/27 03:47:27;;;;;;;2.35;0.98;;;;;;;20.10;46.99;101893.41;4995979;28;100354;-80
2023/12/27 03:49:52;;;;;;;2.30;0.95;;;;;;;20.11;47.02;101884.56;5023035;28;97177;-80
2023/12/27 03:52:18;;;;;;;2.28;1.05;;;;;;;20.12;46.83;101881.91;5018450;28;96795;-79
2023/12/27 03:54:43;;;;;;;2.33;1.10;;;;;;;20.11;47.19;101876.63;5005952;28;107748;-80
2023/12/27 03:57:09;;;;;;;2.95;1.15;;;;;;;20.12;47.19;101868.69;5010006;28;97534;-79
2023/12/27 03:59:40;;;;;;;2.88;1.30;;;;;;;20.12;46.93;101873.97;5014549;28;100809;-79
2023/12/27 04:02:06;;;;;;;3.50;1.20;;;;;;;20.12;47.27;101857.19;5013824;28;96769;-79
2023/12/27 04:04:33;;;;;;;3.15;1.50;;;;;;;20.12;47.12;101857.19;5007608;28;97113;-79
2023/12/27 04:07:00;;;;;;;2.97;1.50;;;;;;;20.12;46.96;101855.44;5008103;28;98860;-79
2023/12/27 04:09:25;;;;;;;2.92;1.50;;;;;;;20.13;47.18;101858.94;5010724;28;99871;-80
2023/12/27 04:11:50;;;;;;;2.78;1.30;;;;;;;20.12;46.98;101859.81;5009065;28;96812;-79
2023/12/27 04:14:17;;;;;;;2.97;1.65;;;;;;;20.12;47.00;101847.50;5011682;28;111459;-79
2023/12/27 04:16:43;;;;;;;2.97;1.33;;;;;;;20.11;47.00;101840.41;5012653;28;97939;-80
2023/12/27 04:19:08;;;;;;;3.42;1.33;;;;;;;20.10;46.79;101833.34;5011382;28;97462;-79
2023/12/27 04:21:34;;;;;;;3.22;1.33;;;;;;;20.11;46.95;101829.81;5012812;28;97529;-79
2023/12/27 04:23:59;;;;;;;3.67;1.33;;;;;;;20.11;46.93;101823.66;5017893;28;96895;-79
2023/12/27 04:26:25;;;;;;;3.25;1.00;;;;;;;20.09;47.08;101817.47;5015876;28;99352;-79
2023/12/27 04:28:50;;;;;;;3.78;1.23;;;;;;;20.08;46.90;101815.75;4998701;28;98795;-79
2023/12/27 04:31:15;;;;;;;2.72;1.27;;;;;;;20.10;46.78;101819.25;5016592;28;96657;-80
2023/12/27 04:33:41;;;;;;;3.25;1.23;;;;;;;20.11;46.78;101821.88;5013868;28;107880;-79
2023/12/27 04:36:06;;;;;;;3.28;1.40;;;;;;;20.11;46.70;101819.22;4993258;28;112342;-80
2023/12/27 04:38:32;;;;;;;2.67;1.02;;;;;;;20.10;46.79;101817.47;5010508;28;97717;-79
2023/12/27 04:40:58;;;;;;;3.45;1.20;;;;;;;20.11;47.00;101821.88;5012428;28;96731;-78
2023/12/27 04:43:24;;;;;;;2.80;1.33;;;;;;;20.10;46.88;101816.59;5011084;28;96845;-79
2023/12/27 04:45:53;;;;;;;2.00;1.20;;;;;;;20.08;46.71;101813.09;5009395;28;99181;-79
2023/12/27 04:48:18;;;;;;;3.95;1.42;;;;;;;20.09;47.06;101806.88;5010174;28;126058;-79
2023/12/27 04:50:44;;;;;;;3.40;1.10;;;;;;;20.06;46.98;101806.94;5012386;28;97432;-79
2023/12/27 04:53:10;;;;;;;3.55;1.30;;;;;;;20.06;46.97;101804.28;5012364;28;103637;-80
2023/12/27 04:55:36;;;;;;;2.65;1.13;;;;;;;20.05;46.74;101797.22;5009542;28;97763;-80
2023/12/27 04:58:01;;;;;;;2.90;1.33;;;;;;;20.05;46.62;101799.88;5013199;28;100008;-79
2023/12/27 05:00:26;;;;;;;3.92;1.35;;;;;;;20.03;46.71;101794.59;5011051;28;96942;-80
2023/12/27 05:02:52;;;;;;;2.70;1.13;;;;;;;20.03;46.87;101802.53;5013701;28;96849;-79
2023/12/27 05:05:17;;;;;;;2.45;1.30;;;;;;;20.04;46.83;101801.66;5006701;28;97959;-79
2023/12/27 05:07:43;;;;;;;3.25;1.15;;;;;;;20.04;46.78;101796.38;5007529;28;96897;-79
2023/12/27 05:10:09;;;;;;;3.40;1.25;;;;;;;20.05;46.98;101790.16;5006278;28;99401;-79
2023/12/27 05:12:34;;;;;;;2.38;1.02;;;;;;;20.02;46.98;101790.22;5009688;28;96806;-79
2023/12/27 05:15:00;;;;;;;2.33;1.30;;;;;;;20.03;46.99;101785.78;5004334;27;126634;-80
2023/12/27 05:17:25;;;;;;;2.10;1.23;;;;;;;20.03;46.90;101788.44;5002691;28;99924;-80
2023/12/27 05:19:51;;;;;;;2.88;1.17;;;;;;;20.04;46.59;101784.91;5008527;27;108367;-79
2023/12/27 05:22:17;;;;;;;3.83;1.15;;;;;;;20.02;46.72;101778.72;5009731;28;97747;-79
2023/12/27 05:24:42;;;;;;;3.50;1.13;;;;;;;20.02;46.90;101773.44;5008019;28;98056;-79
2023/12/27 05:27:07;;;;;;;2.75;1.33;;;;;;;20.03;46.73;101765.47;5011293;28;98267;-79
2023/12/27 05:29:34;;;;;;;2.92;1.20;;;;;;;20.04;46.95;101766.38;5010416;27;111911;-79
2023/12/27 05:32:00;;;;;;;2.95;1.38;;;;;;;20.03;46.69;101769.91;5018387;27;98977;-80
2023/12/27 05:34:25;;;;;;;2.78;1.20;;;;;;;20.02;46.77;101768.13;5023485;27;97125;-79
2023/12/27 05:36:51;;;;;;;2.42;1.20;;;;;;;19.99;46.99;101766.41;5007007;28;97361;-80
2023/12/27 05:39:16;;;;;;;3.33;1.27;;;;;;;20.03;46.74;101761.94;5001801;28;111924;-79
2023/12/27 05:41:42;;;;;;;3.85;1.42;;;;;;;20.00;46.85;101770.81;5008791;28;96946;-79
2023/12/27 05:44:07;;;;;;;2.35;0.90;;;;;;;20.00;46.89;101762.88;4993777;28;118715;-80
2023/12/27 05:46:34;;;;;;;3.05;1.27;;;;;;;20.01;46.67;101761.97;5012806;27;111756;-79
2023/12/27 05:48:59;;;;;;;2.67;0.90;;;;;;;20.03;46.51;101754.88;5009575;28;96793;-79
2023/12/27 05:51:25;;;;;;;2.30;1.15;;;;;;;20.03;46.63;101754.00;5005342;28;96719;-79
2023/12/27 05:53:50;;;;;;;2.40;1.00;;;;;;;20.02;46.74;101757.53;5006149;28;125366;-79
2023/12/27 05:56:16;;;;;;;2.80;1.13;;;;;;;19.99;46.66;101753.16;5004495;28;98474;-78
2023/12/27 05:58:41;;;;;;;3.38;0.95;;;;;;;19.97;46.53;101747.88;5007197;28;96875;-79
2023/12/27 06:01:09;;;;;;;2.88;1.10;;;;;;;19.98;46.58;101751.41;5012285;28;97040;-79
2023/12/27 06:03:34;;;;;;;1.90;0.95;;;;;;;20.00;46.68;101743.44;4995982;28;101186;-79
2023/12/27 06:06:00;;;;;;;2.95;1.63;;;;;;;20.00;46.44;101746.09;5010138;28;97854;-78
2023/12/27 06:08:26;;;;;;;3.08;1.33;;;;;;;20.03;46.57;101740.78;5014737;28;96952;-78
2023/12/27 06:10:51;;;;;;;2.70;1.10;;;;;;;20.03;46.67;101746.06;5004212;28;97134;-78
2023/12/27 06:13:17;;;;;;;2.28;1.42;;;;;;;20.00;46.75;101739.03;5008404;28;97545;-78
2023/12/27 06:15:42;;;;;;;3.22;1.40;;;;;;;20.01;46.43;101735.50;5010636;28;97458;-79
2023/12/27 06:18:08;;;;;;;4.18;1.30;;;;;;;20.00;46.76;101730.22;5007659;28;98228;-79
2023/12/27 06:20:33;;;;;;;2.63;1.13;;;;;;;20.00;46.47;101723.16;5006929;28;97780;-79
2023/12/27 06:22:59;;;;;;;3.10;1.40;;;;;;;20.00;46.44;101709.03;5011883;28;126165;-79
2023/12/27 06:25:24;;;;;;;4.15;1.20;;;;;;;19.99;46.87;101715.22;5014332;28;96873;-79
2023/12/27 06:27:50;;;;;;;1.80;0.95;;;;;;;19.99;46.34;101707.28;5017316;28;96753;-79
2023/12/27 06:30:15;;;;;;;1.85;1.02;;;;;;;20.00;46.35;101703.72;5015807;28;111666;-78
2023/12/27 06:32:40;;;;;;;3.20;0.90;;;;;;;20.01;46.29;101700.19;5014598;27;99680;-78
2023/12/27 06:35:06;;;;;;;2.28;1.02;;;;;;;20.00;46.32;101691.38;5007494;28;104531;-79
2023/12/27 06:37:31;;;;;;;3.97;1.23;;;;;;;20.00;46.40;101688.75;5016267;27;96830;-79
2023/12/27 06:39:57;;;;;;;2.47;1.00;;;;;;;20.02;46.61;101686.03;5008973;28;96880;-79
2023/12/27 06:42:22;;;;;;;2.72;1.40;;;;;;;20.00;46.32;101686.09;5001521;28;129414;-79
2023/12/27 06:44:48;;;;;;;3.20;1.40;;;;;;;20.01;46.43;101681.66;5014416;28;113174;-79
2023/12/27 06:47:13;;;;;;;3.00;1.10;;;;;;;20.02;46.42;101675.44;5023191;27;96744;-79
2023/12/27 06:49:38;;;;;;;1.77;1.00;;;;;;;20.04;45.98;101673.69;5012174;28;111265;-79
2023/12/27 06:52:04;;;;;;;3.58;1.17;;;;;;;20.02;46.50;101662.22;5020874;28;97847;-78
2023/12/27 06:54:29;;;;;;;2.95;1.02;;;;;;;20.02;46.19;101659.56;5016130;28;96861;-79
2023/12/27 06:56:55;;;;;;;3.63;1.65;;;;;;;20.01;46.54;101657.81;5022567;28;97459;-79
2023/12/27 06:59:20;;;;;;;3.72;1.10;;;;;;;20.00;46.34;101659.59;5014205;28;100197;-79
2023/12/27 07:01:45;;;;;;;3.88;1.30;;;;;;;20.01;46.44;101652.53;5022678;28;127448;-78
2023/12/27 07:04:11;;;;;;;2.65;1.05;;;;;;;20.02;46.49;101651.63;5016302;28;97089;-79
2023/12/27 07:06:36;;;;;;;2.20;1.23;;;;;;;20.03;46.01;101646.31;4998612;28;97585;-78
2023/12/27 07:09:03;;;;;;;2.92;1.33;;;;;;;20.02;46.45;101641.91;5014439;28;97009;-78
2023/12/27 07:11:28;;;;;;;2.78;1.23;;;;;;;20.02;46.25;101644.56;5016572;27;97368;-78
2023/12/27 07:13:54;;;;;;;6.53;1.48;;;;;;;20.01;46.40;101642.81;5016108;28;97294;-79
2023/12/27 07:16:20;;;;;;;2.75;1.30;;;;;;;20.01;46.30;101628.69;5014966;28;97138;-78
2023/12/27 07:18:45;;;;;;;3.05;1.27;;;;;;;20.01;46.29;101634.00;5013320;28;96870;-78
2023/12/27 07:21:12;;;;;;;4.05;1.40;;;;;;;19.99;46.45;101631.38;5017474;28;97373;-78
2023/12/27 07:23:37;;;;;;;2.38;1.30;;;;;;;20.00;46.53;101629.56;5006483;28;99903;-78
2023/12/27 07:26:04;;;;;;;3.22;1.30;;;;;;;19.99;46.39;101635.78;5008486;28;97060;-79
2023/12/27 07:28:30;;;;;;;2.17;1.00;;;;;;;19.99;46.15;101627.84;5021188;28;97025;-78
2023/12/27 07:30:56;;;;;;;3.17;1.40;;;;;;;19.98;46.17;101621.66;4993380;28;98093;-79
2023/12/27 07:33:22;;;;;;;2.97;1.10;;;;;;;19.98;46.52;101624.31;5008090;28;97402;-79
2023/12/27 07:35:48;;;;;;;3.25;1.23;;;;;;;19.98;46.66;101621.66;5015818;28;96884;-79
2023/12/27 07:38:13;;;;;;;2.47;1.20;;;;;;;19.99;46.19;101622.56;5019542;28;97241;-79
2023/12/27 07:40:40;;;;;;;2.20;0.98;;;;;;;19.96;46.51;101618.16;5013817;28;111247;-79
2023/12/27 07:43:06;;;;;;;3.22;1.05;;;;;;;19.99;46.49;101618.13;5022214;28;98909;-79
2023/12/27 07:45:33;;;;;;;3.67;1.15;;;;;;;20.02;46.06;101625.13;5016488;28;97266;-79
2023/12/27 07:47:58;;;;;;;3.90;1.20;;;;;;;20.01;46.10;101626.06;5009316;28;96749;-79
2023/12/27 07:50:24;;;;;;;4.22;1.40;;;;;;;19.99;46.39;101623.41;5021545;28;97604;-78
2023/12/27 07:52:49;;;;;;;2.90;1.30;;;;;;;20.00;46.18;101622.53;5021320;28;98344;-79
2023/12/27 07:55:15;;;;;;;2.70;1.08;;;;;;;20.00;46.34;101624.28;5017744;28;96625;-79
2023/12/27 07:57:41;;;;;;;3.33;1.27;;;;;;;20.00;46.54;101626.94;5010187;28;97352;-79
2023/12/27 08:00:08;;;;;;;3.00;1.10;;;;;;;20.01;46.34;101626.06;5013842;28;97656;-79
2023/12/27 08:02:37;;;;;;;3.70;1.10;;;;;;;19.99;46.49;101618.13;5020666;28;96696;-79
2023/12/27 08:05:04;;;;;;;3.53;1.13;;;;;;;19.99;46.21;101620.78;5000188;28;109553;-79
2023/12/27 08:07:30;;;;;;;2.95;1.33;;;;;;;20.01;46.51;101624.25;5012755;28;96793;-79
2023/12/27 08:09:55;;;;;;;2.65;1.48;;;;;;;20.01;46.39;101618.97;5017221;28;99623;-79
2023/12/27 08:12:20;;;;;;;2.75;1.08;;;;;;;20.00;46.26;101611.94;5009993;28;124171;-79
2023/12/27 08:14:46;;;;;;;3.85;1.20;;;;;;;20.02;46.22;101618.09;5018845;28;102027;-79
2023/12/27 08:17:11;;;;;;;2.00;1.13;;;;;;;20.03;46.49;101606.56;5008654;28;97524;-79
2023/12/27 08:19:37;;;;;;;4.53;1.02;;;;;;;20.02;46.31;101609.25;4999176;28;97060;-79
2023/12/27 08:22:03;;;;;;;3.33;1.00;;;;;;;20.01;46.38;101615.47;5005300;28;101678;-79
2023/12/27 08:24:28;;;;;;;3.15;1.00;;;;;;;20.01;46.32;101626.06;5007123;28;97130;-79
2023/12/27 08:26:54;;;;;;;3.03;1.20;;;;;;;20.01;46.24;101612.81;5008875;28;96833;-79
2023/12/27 08:29:19;;;;;;;3.00;1.20;;;;;;;20.00;46.28;101613.69;5010710;28;100191;-79
2023/12/27 08:31:45;;;;;;;3.00;1.40;;;;;;;20.01;46.07;101602.22;5002467;28;97641;-79
2023/12/27 08:34:10;;;;;;;2.50;1.27;;;;;;;20.02;46.09;101607.50;4999932;28;111972;-79
2023/12/27 08:36:35;;;;;;;1.90;1.10;;;;;;;20.02;46.25;101598.66;5009590;28;100411;-79
2023/12/27 08:39:01;;;;;;;2.88;1.13;;;;;;;20.02;46.01;101596.91;5016662;28;97560;-79
2023/12/27 08:41:26;;;;;;;2.00;1.25;;;;;;;20.02;46.02;101585.41;5011718;28;122373;-79
2023/12/27 08:44:00;;;;;;;2.17;0.93;;;;;;;20.02;45.97;101577.47;5016591;28;96779;-80
2023/12/27 08:46:26;;;;;;;3.35;1.08;;;;;;;20.02;46.46;101580.13;5005535;28;97131;-79
2023/12/27 08:48:51;;;;;;;4.10;1.27;;;;;;;20.02;46.36;101566.88;5002183;28;127307;-79
2023/12/27 08:51:16;;;;;;;2.53;1.40;;;;;;;20.01;46.23;101563.38;5005415;28;99202;-79
2023/12/27 08:53:42;;;;;;;2.47;1.20;;;;;;;20.03;46.10;101550.97;5005726;28;96950;-79
2023/12/27 08:56:08;;;;;;;3.45;1.13;;;;;;;20.03;46.24;101552.75;5009708;28;111828;-79
2023/12/27 08:58:33;;;;;;;2.83;0.90;;;;;;;20.02;46.37;101536.00;5012549;28;96928;-79
2023/12/27 09:01:00;;;;;;;2.70;1.00;;;;;;;20.03;46.17;101534.22;4995006;28;110717;-79
2023/12/27 09:03:25;;;;;;;2.40;1.00;;;;;;;20.03;46.05;101528.91;4995460;28;96718;-79
2023/12/27 09:05:51;;;;;;;2.33;0.98;;;;;;;20.03;46.05;101523.63;5004755;28;110333;-79
2023/12/27 09:08:16;;;;;;;3.25;1.10;;;;;;;20.02;46.42;101524.50;5002377;28;128043;-78
2023/12/27 09:10:42;;;;;;;2.83;1.02;;;;;;;20.04;46.07;101522.75;5007394;28;97167;-79
2023/12/27 09:13:07;;;;;;;2.40;1.20;;;;;;;20.02;46.22;101516.56;5002688;28;96823;-79
2023/12/27 09:15:33;;;;;;;2.33;1.30;;;;;;;20.02;46.31;101519.22;5009756;28;111062;-79
2023/12/27 09:17:58;;;;;;;2.13;1.13;;;;;;;20.03;46.45;101518.31;5007584;28;126560;-78
2023/12/27 09:20:23;;;;;;;9.80;1.15;;;;;;;20.04;46.05;101513.00;5010022;28;112202;-79
2023/12/27 09:22:49;;;;;;;2.25;1.20;;;;;;;20.04;45.92;101513.00;5005475;28;96891;-79
2023/12/27 09:25:14;;;;;;;3.17;1.23;;;;;;;20.06;46.29;101515.63;5006660;28;96923;-79
2023/12/27 09:27:39;;;;;;;2.42;1.10;;;;;;;20.03;46.08;101494.50;5001203;28;108995;-78
2023/12/27 09:30:06;;;;;;;3.40;1.33;;;;;;;20.04;46.35;101509.50;5006317;27;114671;-79
2023/12/27 09:32:32;;;;;;;3.63;1.30;;;;;;;20.04;46.17;101520.09;5009833;28;98122;-78
2023/12/27 09:34:57;;;;;;;2.00;1.02;;;;;;;20.05;45.96;101505.94;5016948;28;97471;-78
2023/12/27 09:37:23;;;;;;;2.70;1.23;;;;;;;20.04;46.20;101512.16;5029186;28;97425;-79
2023/12/27 09:39:48;;;;;;;2.70;0.98;;;;;;;20.03;46.11;101494.50;5008600;28;98585;-79
2023/12/27 09:42:14;;;;;;;3.00;1.10;;;;;;;20.03;45.96;101499.78;5010848;28;97147;-79
2023/12/27 09:44:42;;;;;;;2.95;1.20;;;;;;;20.03;46.29;101499.78;5015135;28;97202;-80
2023/12/27 09:47:10;;;;;;;3.40;1.35;;;;;;;20.03;45.85;101505.09;4997857;28;99664;-79
2023/12/27 09:49:36;;;;;;;3.05;0.90;;;;;;;20.05;46.25;101498.00;5016414;28;97871;-79
2023/12/27 09:52:02;;;;;;;3.53;1.10;;;;;;;20.03;46.28;101484.78;5010377;28;96945;-79
2023/12/27 09:54:28;;;;;;;2.53;1.00;;;;;;;20.03;46.17;101482.13;4999467;28;97014;-79
2023/12/27 09:56:54;;;;;;;4.38;1.20;;;;;;;20.03;45.92;101494.50;5005186;28;97566;-79
2023/12/27 09:59:26;;;;;;;3.72;1.27;;;;;;;20.01;46.10;101481.28;5012793;28;97449;-79
2023/12/27 10:01:57;;;;;;;2.30;1.02;;;;;;;20.03;46.04;101463.59;5006224;28;98055;-79
2023/12/27 10:04:38;;;;;;;3.42;1.27;;;;;;;20.02;46.29;101477.75;5006571;28;96834;-78
2023/12/27 10:07:05;;;;;;;2.35;0.90;;;;;;;20.03;46.19;101474.19;5006003;28;98081;-79
2023/12/27 10:09:33;;;;;;;3.30;1.10;;;;;;;20.03;46.15;101478.59;5001015;28;97610;-79
2023/12/27 10:11:59;;;;;;;2.08;1.10;;;;;;;20.00;45.98;101482.19;5009958;28;97285;-79
2023/12/27 10:14:26;;;;;;;3.42;1.20;;;;;;;20.01;46.29;101483.06;5004704;28;98900;-78
2023/12/27 10:16:51;;;;;;;2.53;1.20;;;;;;;20.01;45.86;101473.34;5009104;28;97344;-79
2023/12/27 10:19:42;;;;;;;2.10;1.08;;;;;;;19.99;46.25;101474.28;5009448;28;97161;-78
2023/12/27 10:22:09;;;;;;;3.05;0.88;;;;;;;20.02;46.06;101472.44;5008088;28;96856;-78
2023/12/27 10:24:35;;;;;;;2.92;0.98;;;;;;;20.00;46.10;101479.53;5008089;28;97437;-78
2023/12/27 10:27:04;;;;;;;2.97;1.15;;;;;;;19.99;45.93;101466.34;5013493;28;97387;-78
2023/12/27 10:29:32;;;;;;;2.83;1.10;;;;;;;20.00;46.25;101452.16;5012957;28;97060;-78
2023/12/27 10:32:04;;;;;;;2.10;0.90;;;;;;;20.02;46.18;101459.22;5015655;28;96753;-78
2023/12/27 10:34:29;;;;;;;2.45;1.27;;;;;;;20.01;45.90;101459.22;4995766;28;97057;-78
2023/12/27 10:36:59;;;;;;;1.88;0.90;;;;;;;20.00;45.91;101447.78;5011940;28;126773;-78
2023/12/27 10:39:25;;;;;;;2.72;0.95;;;;;;;20.02;45.95;101440.69;4988892;28;100252;-78
2023/12/27 10:41:54;;;;;;;2.45;1.00;;;;;;;20.01;45.93;101443.34;5015003;28;96848;-79
2023/12/27 10:44:19;;;;;;;2.28;1.00;;;;;;;20.01;46.16;101435.41;5008735;28;96906;-78
2023/12/27 10:46:46;;;;;;;2.67;1.00;;;;;;;20.01;45.99;101417.72;5011170;28;100722;-79
2023/12/27 10:49:16;;;;;;;1.40;0.80;;;;;;;20.02;45.97;101418.59;5010868;28;97279;-78
2023/12/27 10:51:42;;;;;;;3.55;1.10;;;;;;;20.01;45.68;101420.38;5001278;28;96884;-79
2023/12/27 10:54:09;;;;;;;2.28;1.20;;;;;;;20.03;46.08;101415.91;5016349;28;96826;-79
2023/12/27 10:56:39;;;;;;;3.00;1.02;;;;;;;20.03;45.84;101412.41;5014152;28;97775;-79
2023/12/27 10:59:06;;;;;;;2.17;0.90;;;;;;;20.04;46.09;101406.22;5006897;28;99199;-79
2023/12/27 11:01:36;;;;;;;2.72;1.00;;;;;;;20.04;45.76;101404.44;5014250;28;97309;-79
2023/12/27 11:04:09;;;;;;;2.33;0.90;;;;;;;20.01;45.96;101399.19;5013819;28;96819;-79
2023/12/27 11:06:37;;;;;;;1.58;0.80;;;;;;;20.02;45.75;101400.94;5013879;28;97845;-78
2023/12/27 11:09:07;;;;;;;1.88;0.93;;;;;;;20.03;45.77;101396.53;4996189;28;96948;-79
2023/12/27 11:11:40;;;;;;;1.73;1.00;;;;;;;20.02;46.16;101393.00;5014537;28;96803;-79
2023/12/27 11:14:11;;;;;;;3.28;1.02;;;;;;;20.02;45.50;101381.53;5013371;28;97651;-79
2023/12/27 11:16:39;;;;;;;3.47;1.10;;;;;;;20.02;45.48;101379.78;5013360;28;97713;-79